createdAt,value
2023-04-11T00:04:14.903Z,6.34
2023-04-11T00:09:19.977Z,6.26
2023-04-11T00:14:21.444Z,6.22
2023-04-11T00:19:23.386Z,6.18
2023-04-11T00:24:26.111Z,6.11
2023-04-11T00:29:27.911Z,6.07
2023-04-11T00:34:29.890Z,6.04
2023-04-11T00:39:33.985Z,6.02
2023-04-11T00:44:36.458Z,6.03
2023-04-11T00:49:39.177Z,6.15
2023-04-11T00:54:41.247Z,6.25
2023-04-11T00:59:43.201Z,6.34
2023-04-11T01:04:45.490Z,6.39
2023-04-11T01:09:47.877Z,6.43
2023-04-11T01:14:49.544Z,6.47
2023-04-11T01:19:51.928Z,6.51
2023-04-11T01:24:53.862Z,6.51
2023-04-11T01:29:55.355Z,6.51
2023-04-11T01:34:58.711Z,6.50
2023-04-11T01:40:01.557Z,6.49
2023-04-11T01:45:06.210Z,6.50
2023-04-11T01:50:08.616Z,6.49
2023-04-11T01:55:10.146Z,6.48
2023-04-11T02:00:13.918Z,6.46
2023-04-11T02:05:15.606Z,6.42
2023-04-11T02:10:17.180Z,6.39
2023-04-11T02:15:19.119Z,6.35
2023-04-11T02:20:21.989Z,6.29
2023-04-11T02:25:23.485Z,6.21
2023-04-11T02:30:24.994Z,6.15
2023-04-11T02:35:26.548Z,6.10
2023-04-11T02:40:28.084Z,6.05
2023-04-11T02:45:29.689Z,6.01
2023-04-11T02:50:31.641Z,5.98
2023-04-11T02:55:33.180Z,5.94
2023-04-11T03:00:34.707Z,5.90
2023-04-11T03:05:36.202Z,5.85
2023-04-11T03:10:37.692Z,5.78
2023-04-11T03:15:39.336Z,5.71
2023-04-11T03:20:40.859Z,5.66
2023-04-11T03:25:44.616Z,5.62
2023-04-11T03:30:46.458Z,5.58
2023-04-11T03:35:47.987Z,5.55
2023-04-11T03:40:49.538Z,5.52
2023-04-11T03:45:51.916Z,5.52
2023-04-11T03:50:53.473Z,5.54
2023-04-11T03:55:55.569Z,5.57
2023-04-11T04:00:57.131Z,5.61
2023-04-11T04:05:58.634Z,5.64
2023-04-11T04:11:00.180Z,5.66
2023-04-11T04:16:03.435Z,5.69
2023-04-11T04:21:07.577Z,5.74
2023-04-11T04:26:09.230Z,5.81
2023-04-11T04:31:10.712Z,5.91
2023-04-11T04:36:12.641Z,6.03
2023-04-11T04:41:22.178Z,6.12
2023-04-11T04:46:23.986Z,6.23
2023-04-11T04:51:27.425Z,6.30
2023-04-11T04:56:30.507Z,6.40
2023-04-11T05:01:32.973Z,6.55
2023-04-11T05:06:34.795Z,6.69
2023-04-11T05:11:36.314Z,6.77
2023-04-11T05:16:41.875Z,6.89
2023-04-11T05:21:43.398Z,7.01
2023-04-11T05:26:45.773Z,7.13
2023-04-11T05:31:47.243Z,7.25
2023-04-11T05:36:48.930Z,7.36
2023-04-11T05:41:50.887Z,7.48
2023-04-11T05:46:52.501Z,7.58
2023-04-11T05:51:53.976Z,7.64
2023-04-11T05:56:56.503Z,7.70
2023-04-11T06:01:58.952Z,7.79
2023-04-11T06:07:02.604Z,7.91
2023-04-11T06:12:04.175Z,7.97
2023-04-11T06:17:06.055Z,8.06
2023-04-11T06:22:07.623Z,8.20
2023-04-11T06:27:12.141Z,8.30
2023-04-11T06:32:13.982Z,8.40
2023-04-11T06:37:15.769Z,8.51
2023-04-11T06:42:17.332Z,8.64
2023-04-11T06:47:19.100Z,8.78
2023-04-11T06:52:20.840Z,8.91
2023-04-11T06:57:22.442Z,9.13
2023-04-11T07:02:25.793Z,9.39
2023-04-11T07:07:27.752Z,9.68
2023-04-11T07:12:29.323Z,9.91
2023-04-11T07:17:31.341Z,10.07
2023-04-11T07:22:33.004Z,10.21
2023-04-11T07:27:36.333Z,10.39
2023-04-11T07:32:37.875Z,10.48
2023-04-11T07:37:39.496Z,10.55
2023-04-11T07:42:42.188Z,10.67
2023-04-11T07:47:43.738Z,10.79
2023-04-11T07:52:45.409Z,10.84
2023-04-11T07:57:46.956Z,10.85
2023-04-11T08:02:49.426Z,10.95
2023-04-11T08:07:51.190Z,11.08
2023-04-11T08:12:52.789Z,11.18
2023-04-11T08:17:57.636Z,11.28
2023-04-11T08:22:59.516Z,11.39
2023-04-11T08:28:01.526Z,11.46
2023-04-11T08:33:03.360Z,11.63
2023-04-11T08:38:04.956Z,11.85
2023-04-11T08:43:12.393Z,11.98
2023-04-11T08:48:14.041Z,12.14
2023-04-11T08:53:18.917Z,12.29
2023-04-11T08:58:20.791Z,12.45
2023-04-11T09:03:22.776Z,12.52
2023-04-11T09:08:39.336Z,12.58
2023-04-11T09:13:40.904Z,12.69
2023-04-11T09:18:44.933Z,12.83
2023-04-11T09:23:46.525Z,12.94
2023-04-11T09:28:53.911Z,13.06
2023-04-11T09:33:58.757Z,13.26
2023-04-11T09:39:05.017Z,13.46
2023-04-11T09:44:06.528Z,13.56
2023-04-11T09:54:15.810Z,13.76
2023-04-11T09:59:20.219Z,13.79
2023-04-11T10:04:22.842Z,13.90
2023-04-11T10:09:24.589Z,14.16
2023-04-11T10:14:38.423Z,14.36
2023-04-11T10:19:40.622Z,14.39
2023-04-11T10:25:20.923Z,14.38
2023-04-11T10:30:41.058Z,14.36
2023-04-11T10:36:05.644Z,14.47
2023-04-11T10:41:22.983Z,14.54
2023-04-11T10:46:26.605Z,14.63
2023-04-11T10:51:30.522Z,14.73
2023-04-11T10:56:45.455Z,14.78
2023-04-11T11:01:54.920Z,14.77
2023-04-11T11:06:58.098Z,14.81
2023-04-11T11:12:08.803Z,14.86
2023-04-11T11:17:15.656Z,15.07
2023-04-11T11:22:26.069Z,15.16
2023-04-11T11:27:28.582Z,15.36
2023-04-11T11:32:32.816Z,15.51
2023-04-11T11:37:34.729Z,15.53
2023-04-11T11:42:37.028Z,15.49
2023-04-11T11:47:43.225Z,15.66
2023-04-11T11:52:44.769Z,15.56
2023-04-11T11:57:47.519Z,15.57
2023-04-11T12:02:52.548Z,15.75
2023-04-11T12:07:55.031Z,15.74
2023-04-11T12:12:56.577Z,15.62
2023-04-11T12:17:58.118Z,15.50
2023-04-11T12:22:59.820Z,15.39
2023-04-11T12:28:01.408Z,15.36
2023-04-11T12:33:02.950Z,15.51
2023-04-11T12:38:04.617Z,15.86
2023-04-11T12:43:06.156Z,16.18
2023-04-11T12:48:08.148Z,16.23
2023-04-11T12:53:09.717Z,16.27
2023-04-11T12:58:11.538Z,16.51
2023-04-11T13:03:13.357Z,16.56
2023-04-11T13:08:15.569Z,16.72
2023-04-11T13:13:18.287Z,16.75
2023-04-11T13:18:20.717Z,16.85
2023-04-11T13:23:22.203Z,16.84
2023-04-11T13:28:23.742Z,16.82
2023-04-11T13:33:26.291Z,16.94
2023-04-11T13:38:28.264Z,16.93
2023-04-11T13:43:29.932Z,16.89
2023-04-11T13:48:31.423Z,16.82
2023-04-11T13:53:32.921Z,16.69
2023-04-11T13:58:35.144Z,16.58
2023-04-11T14:03:37.842Z,16.50
2023-04-11T14:08:39.509Z,16.45
2023-04-11T14:13:41.204Z,16.40
2023-04-11T14:18:42.857Z,16.42
2023-04-11T14:23:44.580Z,16.35
2023-04-11T14:28:46.412Z,16.32
2023-04-11T14:33:47.901Z,16.36
2023-04-11T14:38:49.482Z,16.47
2023-04-11T14:43:51.313Z,16.51
2023-04-11T14:48:52.837Z,16.53
2023-04-11T14:53:59.845Z,16.51
2023-04-11T14:59:01.621Z,16.56
2023-04-11T15:04:03.225Z,16.59
2023-04-11T15:09:04.934Z,16.64
2023-04-11T15:14:06.446Z,16.62
2023-04-11T15:19:09.570Z,16.57
2023-04-11T15:24:11.124Z,16.55
2023-04-11T15:29:17.451Z,16.53
2023-04-11T15:34:19.020Z,16.42
2023-04-11T15:39:20.515Z,16.19
2023-04-11T15:44:22.009Z,15.97
2023-04-11T15:49:23.619Z,15.67
2023-04-11T15:54:25.282Z,15.55
2023-04-11T15:59:27.277Z,15.40
2023-04-11T16:04:29.819Z,15.23
2023-04-11T16:09:31.828Z,15.07
2023-04-11T16:14:33.318Z,14.89
2023-04-11T16:19:34.864Z,14.76
2023-04-11T16:24:36.782Z,14.67
2023-04-11T16:29:38.301Z,14.53
2023-04-11T16:34:40.021Z,14.38
2023-04-11T16:39:41.542Z,14.22
2023-04-11T16:44:43.055Z,14.07
2023-04-11T16:49:46.909Z,13.91
2023-04-11T16:54:48.888Z,13.80
2023-04-11T16:59:51.616Z,13.66
2023-04-11T17:04:53.224Z,13.52
2023-04-11T17:09:54.760Z,13.37
2023-04-11T17:14:56.441Z,13.21
2023-04-11T17:19:57.911Z,13.03
2023-04-11T17:24:59.977Z,12.86
2023-04-11T17:30:02.245Z,12.72
2023-04-11T17:35:05.868Z,12.58
2023-04-11T17:40:12.664Z,12.44
2023-04-11T17:45:18.253Z,12.30
2023-04-11T17:50:20.217Z,12.19
2023-04-11T17:55:21.885Z,12.06
2023-04-11T18:00:24.321Z,11.93
2023-04-11T18:05:29.170Z,11.81
2023-04-11T18:10:31.380Z,11.69
2023-04-11T18:15:33.495Z,11.60
2023-04-11T18:20:35.300Z,11.51
2023-04-11T18:25:37.075Z,11.43
2023-04-11T18:30:39.845Z,11.35
2023-04-11T18:35:41.725Z,11.27
2023-04-11T18:40:43.441Z,11.16
2023-04-11T18:45:45.273Z,11.02
2023-04-11T18:50:57.870Z,10.92
2023-04-11T18:56:03.084Z,10.80
2023-04-11T19:01:14.836Z,10.72
2023-04-11T19:06:17.605Z,10.65
2023-04-11T19:11:19.549Z,10.58
2023-04-11T19:16:21.382Z,10.48
2023-04-11T19:21:23.072Z,10.37
2023-04-11T19:26:28.399Z,10.33
2023-04-11T19:31:32.418Z,10.35
2023-04-11T19:36:35.158Z,10.38
2023-04-11T19:41:36.764Z,10.38
2023-04-11T19:46:39.142Z,10.33
2023-04-11T19:51:40.692Z,10.23
2023-04-11T19:56:45.491Z,10.13
2023-04-11T20:01:47.178Z,10.04
2023-04-11T20:06:50.759Z,9.96
2023-04-11T20:11:52.419Z,9.87
2023-04-11T20:16:53.973Z,9.78
2023-04-11T20:21:56.037Z,9.69
2023-04-11T20:26:57.521Z,9.64
2023-04-11T20:31:59.008Z,9.63
2023-04-11T20:37:04.664Z,9.60
2023-04-11T20:42:10.633Z,9.52
2023-04-11T20:47:12.157Z,9.47
2023-04-11T20:52:13.719Z,9.46
2023-04-11T20:57:15.578Z,9.45
2023-04-11T21:02:17.439Z,9.41
2023-04-11T21:07:22.432Z,9.34
2023-04-11T21:12:23.948Z,9.23
2023-04-11T21:17:26.184Z,9.19
2023-04-11T21:22:27.786Z,9.18
2023-04-11T21:27:29.354Z,9.15
2023-04-11T21:32:31.088Z,9.12
2023-04-11T21:37:33.068Z,9.09
2023-04-11T21:42:34.590Z,9.03
2023-04-11T21:47:36.307Z,8.98
2023-04-11T21:52:38.009Z,8.96
2023-04-11T21:57:39.549Z,8.96
2023-04-11T22:02:41.576Z,8.95
2023-04-11T22:07:49.208Z,8.94
2023-04-11T22:12:53.749Z,8.94
2023-04-11T22:17:56.603Z,8.94
2023-04-11T22:22:58.386Z,8.94
2023-04-11T22:28:00.005Z,8.95
2023-04-11T22:33:02.053Z,8.97
2023-04-11T22:38:03.922Z,8.96
2023-04-11T22:43:05.712Z,8.93
2023-04-11T22:48:07.320Z,8.90
2023-04-11T22:53:09.490Z,8.88
2023-04-11T22:58:11.151Z,8.86
2023-04-11T23:03:14.304Z,8.81
2023-04-11T23:08:15.932Z,8.80
2023-04-11T23:13:17.484Z,8.81
2023-04-11T23:18:19.519Z,8.78
2023-04-11T23:23:21.102Z,8.73
2023-04-11T23:28:24.240Z,8.66
2023-04-11T23:33:26.825Z,8.61
2023-04-11T23:38:28.979Z,8.54
2023-04-11T23:43:30.655Z,8.45
2023-04-11T23:48:32.164Z,8.44
2023-04-11T23:53:34.178Z,8.46
2023-04-11T23:58:36.072Z,8.47
